Weather at Geneva Cointrin International Airport

Public forecast

Using degrees Celsius for public forecast. Weather courtesy of forecast.io.

Current aviation weather report (METAR) for Geneva Cointrin International Airport

2023/01/28 13:50 (retrieved 17 minutes ago)

LSGG 281350Z 03014KT 9999 BKN026 02/M04 Q1021 NOSIG

Aviation forecast (TAF) for Geneva Cointrin International Airport

2023/01/28 12:33 (retrieved 2 hours ago)

TAF TAF LSGG 281125Z 2812/2918 03015G25KT 9999 BKN022 TX02/2814Z TNM01/2906Z TX03/2914Z BECMG 2906/2908 03006KT